createdAt,value
2023-05-12T00:00:13.105Z,37.80
2023-05-12T00:02:17.613Z,37.80
2023-05-12T00:04:20.595Z,37.70
2023-05-12T00:06:23.547Z,37.70
2023-05-12T00:08:27.716Z,37.50
2023-05-12T00:10:32.179Z,37.40
2023-05-12T00:12:35.070Z,37.60
2023-05-12T00:14:38.049Z,37.50
2023-05-12T00:16:42.293Z,37.30
2023-05-12T00:18:45.534Z,37.40
2023-05-12T00:20:48.498Z,37.50
2023-05-12T00:22:51.401Z,37.50
2023-05-12T00:24:54.312Z,37.50
2023-05-12T00:27:02.225Z,37.60
2023-05-12T00:29:07.262Z,37.90
2023-05-12T00:31:10.252Z,37.50
2023-05-12T00:33:13.571Z,37.50
2023-05-12T00:35:18.340Z,37.60
2023-05-12T00:37:21.699Z,37.70
2023-05-12T00:39:24.793Z,37.50
2023-05-12T00:41:28.443Z,37.50
2023-05-12T00:43:33.663Z,37.70
2023-05-12T00:45:36.915Z,37.90
2023-05-12T00:47:41.623Z,37.90
2023-05-12T00:49:44.904Z,37.90
2023-05-12T00:51:47.830Z,37.70
2023-05-12T00:53:51.388Z,37.70
2023-05-12T00:55:57.506Z,37.50
2023-05-12T00:58:01.863Z,37.40
2023-05-12T01:00:10.664Z,37.20
2023-05-12T01:02:15.393Z,37.50
2023-05-12T01:04:18.748Z,37.30
2023-05-12T01:06:30.050Z,37.30
2023-05-12T01:08:34.204Z,37.70
2023-05-12T01:10:37.777Z,37.60
2023-05-12T01:12:40.712Z,37.50
2023-05-12T01:14:44.057Z,37.60
2023-05-12T01:16:54.839Z,37.70
2023-05-12T01:19:02.971Z,38.60
2023-05-12T01:21:06.929Z,37.80
2023-05-12T01:23:10.578Z,38.00
2023-05-12T01:25:16.372Z,38.10
2023-05-12T01:27:23.474Z,38.10
2023-05-12T01:29:28.006Z,38.50
2023-05-12T01:31:31.980Z,38.20
2023-05-12T01:33:36.226Z,38.20
2023-05-12T01:35:39.502Z,38.20
2023-05-12T01:37:45.699Z,38.10
2023-05-12T01:39:48.770Z,38.50
2023-05-12T01:41:57.945Z,38.30
2023-05-12T01:44:02.538Z,38.40
2023-05-12T01:46:05.924Z,38.70
2023-05-12T01:48:09.249Z,38.70
2023-05-12T01:50:12.618Z,38.90
2023-05-12T01:52:16.150Z,39.00
2023-05-12T01:54:19.245Z,39.20
2023-05-12T01:56:22.830Z,39.40
2023-05-12T01:58:27.660Z,39.40
2023-05-12T02:00:33.159Z,39.50
2023-05-12T02:02:39.749Z,39.80
2023-05-12T02:04:50.266Z,39.70
2023-05-12T02:06:54.504Z,40.30
2023-05-12T02:08:57.388Z,39.90
2023-05-12T02:11:09.938Z,39.60
2023-05-12T02:13:14.336Z,40.40
2023-05-12T02:15:17.484Z,39.90
2023-05-12T02:17:25.079Z,39.90
2023-05-12T02:19:28.067Z,40.00
2023-05-12T02:21:33.960Z,40.10
2023-05-12T02:23:37.073Z,40.00
2023-05-12T02:25:40.011Z,40.00
2023-05-12T02:27:45.507Z,40.30
2023-05-12T02:29:49.110Z,41.00
2023-05-12T02:31:53.196Z,40.20
2023-05-12T02:34:01.074Z,40.30
2023-05-12T02:36:04.827Z,40.40
2023-05-12T02:38:10.693Z,40.10
2023-05-12T02:40:14.624Z,40.40
2023-05-12T02:42:22.067Z,40.00
2023-05-12T02:44:29.481Z,40.00
2023-05-12T02:46:32.464Z,40.30
2023-05-12T02:48:38.504Z,40.30
2023-05-12T02:50:43.141Z,40.20
2023-05-12T02:52:47.980Z,40.40
2023-05-12T02:54:50.962Z,40.30
2023-05-12T02:56:56.507Z,40.10
2023-05-12T02:59:03.455Z,40.30
2023-05-12T03:01:11.232Z,40.40
2023-05-12T03:03:15.738Z,40.30
2023-05-12T03:05:18.948Z,40.50
2023-05-12T03:07:24.818Z,40.60
2023-05-12T03:09:27.756Z,40.70
2023-05-12T03:11:33.555Z,40.60
2023-05-12T03:13:36.569Z,40.60
2023-05-12T03:15:40.848Z,40.50
2023-05-12T03:17:43.913Z,40.20
2023-05-12T03:19:46.935Z,40.10
2023-05-12T03:21:55.028Z,40.10
2023-05-12T03:23:59.331Z,40.00
2023-05-12T03:26:02.484Z,40.10
2023-05-12T03:28:08.912Z,40.00
2023-05-12T03:30:13.082Z,40.30
2023-05-12T03:32:16.620Z,40.10
2023-05-12T03:34:19.606Z,40.10
2023-05-12T03:36:25.272Z,40.00
2023-05-12T03:38:28.210Z,40.40
2023-05-12T03:40:33.629Z,40.20
2023-05-12T03:42:36.564Z,40.30
2023-05-12T03:44:42.540Z,40.20
2023-05-12T03:46:45.698Z,40.20
2023-05-12T03:48:53.798Z,40.40
2023-05-12T03:50:56.772Z,40.70
2023-05-12T03:52:59.729Z,40.50
2023-05-12T03:55:06.008Z,40.50
2023-05-12T03:57:12.676Z,40.80
2023-05-12T03:59:16.225Z,40.60
2023-05-12T04:01:20.434Z,40.40
2023-05-12T04:03:23.399Z,40.30
2023-05-12T04:05:26.767Z,40.30
2023-05-12T04:07:29.604Z,40.20
2023-05-12T04:09:32.842Z,40.20
2023-05-12T04:11:38.024Z,40.20
2023-05-12T04:13:42.532Z,40.50
2023-05-12T04:15:46.636Z,40.40
2023-05-12T04:17:52.432Z,40.50
2023-05-12T04:19:55.877Z,40.50
2023-05-12T04:22:13.305Z,40.40
2023-05-12T04:24:16.769Z,40.40
2023-05-12T04:26:19.908Z,41.10
2023-05-12T04:28:25.803Z,40.50
2023-05-12T04:30:31.941Z,40.50
2023-05-12T04:32:36.382Z,40.70
2023-05-12T04:34:39.411Z,40.70
2023-05-12T04:36:43.371Z,40.60
2023-05-12T04:38:46.548Z,40.40
2023-05-12T04:40:49.928Z,40.50
2023-05-12T04:42:54.851Z,40.90
2023-05-12T04:44:57.802Z,41.00
2023-05-12T04:47:02.066Z,41.30
2023-05-12T04:49:07.802Z,41.90
2023-05-12T04:51:10.735Z,41.50
2023-05-12T04:53:14.025Z,41.70
2023-05-12T04:55:20.098Z,41.90
2023-05-12T04:57:25.972Z,42.00
2023-05-12T04:59:31.878Z,42.00
2023-05-12T05:01:34.956Z,42.00
2023-05-12T05:03:39.882Z,42.00
2023-05-12T05:05:43.093Z,42.10
2023-05-12T05:07:46.023Z,42.10
2023-05-12T05:09:49.374Z,42.00
2023-05-12T05:11:54.297Z,42.00
2023-05-12T05:13:59.858Z,42.20
2023-05-12T05:16:07.697Z,42.10
2023-05-12T05:18:10.690Z,42.20
2023-05-12T05:20:15.503Z,42.10
2023-05-12T05:22:18.834Z,42.20
2023-05-12T05:24:22.659Z,42.20
2023-05-12T05:26:26.296Z,41.90
2023-05-12T05:28:29.359Z,42.00
2023-05-12T05:30:32.979Z,41.90
2023-05-12T05:32:37.829Z,41.80
2023-05-12T05:34:40.848Z,41.80
2023-05-12T05:36:45.258Z,42.20
2023-05-12T05:38:48.351Z,42.10
2023-05-12T05:40:54.683Z,41.60
2023-05-12T05:43:00.954Z,41.30
2023-05-12T05:45:03.952Z,41.00
2023-05-12T05:47:08.633Z,41.10
2023-05-12T05:49:11.629Z,41.00
2023-05-12T05:51:15.008Z,40.90
2023-05-12T05:53:19.609Z,40.80
2023-05-12T05:55:23.259Z,40.90
2023-05-12T05:57:28.101Z,40.90
2023-05-12T05:59:32.989Z,40.70
2023-05-12T06:01:37.141Z,40.50
2023-05-12T06:03:42.982Z,40.50
2023-05-12T06:05:47.321Z,40.70
2023-05-12T06:07:50.235Z,40.70
2023-05-12T06:09:55.521Z,40.90
2023-05-12T06:12:00.045Z,41.20
2023-05-12T06:14:02.973Z,41.10
2023-05-12T06:16:07.587Z,40.90
2023-05-12T06:18:13.270Z,40.70
2023-05-12T06:20:20.683Z,40.60
2023-05-12T06:22:23.546Z,40.70
2023-05-12T06:24:26.730Z,40.60
2023-05-12T06:26:31.032Z,40.80
2023-05-12T06:28:33.896Z,41.00
2023-05-12T06:30:36.999Z,40.90
2023-05-12T06:32:39.945Z,41.00
2023-05-12T06:34:42.923Z,41.10
2023-05-12T06:36:46.728Z,41.20
2023-05-12T06:38:50.952Z,41.30
2023-05-12T06:40:53.805Z,41.40
2023-05-12T06:42:57.951Z,41.50
2023-05-12T06:45:04.029Z,41.80
2023-05-12T06:47:08.231Z,41.40
2023-05-12T06:49:11.094Z,41.50
2023-05-12T06:51:14.316Z,41.50
2023-05-12T06:53:19.891Z,41.40
2023-05-12T06:55:23.951Z,41.40
2023-05-12T06:57:27.246Z,41.30
2023-05-12T06:59:31.780Z,41.30
2023-05-12T07:01:35.077Z,41.30
2023-05-12T07:03:38.601Z,41.30
2023-05-12T07:05:41.515Z,41.30
2023-05-12T07:07:44.425Z,41.30
2023-05-12T07:09:47.286Z,41.20
2023-05-12T07:11:50.157Z,41.20
2023-05-12T07:13:53.438Z,41.20
2023-05-12T07:15:57.725Z,41.30
2023-05-12T07:18:07.047Z,41.40
2023-05-12T07:20:10.811Z,41.50
2023-05-12T07:22:15.497Z,41.20
2023-05-12T07:24:18.429Z,41.00
2023-05-12T07:26:21.623Z,40.90
2023-05-12T07:28:26.269Z,41.00
2023-05-12T07:30:29.168Z,41.30
2023-05-12T07:32:34.749Z,41.20
2023-05-12T07:34:38.256Z,41.30
2023-05-12T07:36:41.147Z,41.40
2023-05-12T07:38:44.648Z,41.50
2023-05-12T07:40:50.302Z,41.90
2023-05-12T07:42:56.211Z,41.30
2023-05-12T07:44:59.067Z,41.40
2023-05-12T07:47:01.966Z,41.30
2023-05-12T07:49:08.442Z,41.30
2023-05-12T07:51:11.340Z,41.00
2023-05-12T07:53:14.276Z,41.00
2023-05-12T07:55:17.634Z,40.90
2023-05-12T07:57:20.557Z,40.90
2023-05-12T07:59:23.502Z,40.70
2023-05-12T08:01:26.424Z,40.60
2023-05-12T08:03:31.627Z,40.40
2023-05-12T08:05:38.300Z,40.00
2023-05-12T08:07:43.540Z,40.20
2023-05-12T08:09:46.548Z,40.00
2023-05-12T08:11:51.438Z,40.10
2023-05-12T08:13:54.867Z,39.70
2023-05-12T08:15:58.092Z,39.60
2023-05-12T08:18:01.130Z,39.20
2023-05-12T08:20:05.130Z,39.00
2023-05-12T08:22:09.350Z,39.20
2023-05-12T08:24:12.202Z,39.50
2023-05-12T08:26:15.102Z,39.50
2023-05-12T08:28:18.045Z,39.60
2023-05-12T08:30:23.544Z,39.80
2023-05-12T08:32:26.667Z,40.00
2023-05-12T08:34:29.630Z,40.20
2023-05-12T08:36:32.883Z,40.20
2023-05-12T08:38:37.176Z,40.00
2023-05-12T08:40:49.953Z,40.20
2023-05-12T08:43:01.140Z,40.20
2023-05-12T08:45:05.378Z,40.00
2023-05-12T08:47:09.522Z,39.70
2023-05-12T08:49:16.593Z,39.90
2023-05-12T08:51:20.862Z,39.80
2023-05-12T08:53:25.036Z,39.70
2023-05-12T08:55:32.801Z,39.90
2023-05-12T08:57:45.319Z,40.10
2023-05-12T08:59:49.557Z,40.40
2023-05-12T09:01:52.669Z,40.30
2023-05-12T09:03:55.796Z,40.30
2023-05-12T09:06:00.268Z,40.40
2023-05-12T09:08:06.895Z,40.40
2023-05-12T09:10:32.257Z,40.40
2023-05-12T09:12:38.973Z,40.60
2023-05-12T09:14:45.831Z,40.90
2023-05-12T09:16:51.916Z,40.80
2023-05-12T09:18:56.385Z,40.70
2023-05-12T09:21:05.189Z,40.70
2023-05-12T09:23:17.977Z,41.20
2023-05-12T09:25:22.338Z,41.90
2023-05-12T09:27:26.904Z,41.80
2023-05-12T09:29:35.867Z,41.80
2023-05-12T09:31:54.628Z,42.00
2023-05-12T09:34:04.614Z,42.00
2023-05-12T09:36:08.121Z,42.10
2023-05-12T09:38:12.134Z,42.50
2023-05-12T09:40:16.844Z,42.20
2023-05-12T09:42:21.854Z,42.00
2023-05-12T09:44:28.910Z,41.70
2023-05-12T09:46:34.490Z,41.00
2023-05-12T09:48:42.435Z,40.90
2023-05-12T09:50:47.810Z,40.70
2023-05-12T09:52:52.268Z,40.80
2023-05-12T09:54:55.149Z,40.00
2023-05-12T09:57:00.504Z,39.80
2023-05-12T09:59:06.577Z,39.30
2023-05-12T10:01:21.746Z,39.00
2023-05-12T10:03:30.557Z,39.30
2023-05-12T10:05:35.058Z,39.70
2023-05-12T10:07:41.406Z,39.80
2023-05-12T10:09:47.376Z,39.60
2023-05-12T10:11:53.965Z,38.90
2023-05-12T10:13:59.935Z,38.70
2023-05-12T10:16:03.829Z,38.40
2023-05-12T10:18:09.677Z,38.40
2023-05-12T10:20:17.357Z,38.40
2023-05-12T10:22:21.582Z,39.00
2023-05-12T10:24:27.809Z,38.90
2023-05-12T10:26:34.757Z,38.10
2023-05-12T10:28:37.720Z,37.90
2023-05-12T10:30:43.033Z,37.40
2023-05-12T10:32:45.940Z,36.70
2023-05-12T10:34:52.005Z,35.90
2023-05-12T10:36:56.237Z,35.60
2023-05-12T10:39:07.921Z,35.80
2023-05-12T10:41:13.789Z,35.50
2023-05-12T10:43:26.648Z,36.00
2023-05-12T10:45:30.636Z,36.60
2023-05-12T10:47:38.668Z,36.80
2023-05-12T10:49:43.141Z,37.30
2023-05-12T10:51:50.548Z,37.70
2023-05-12T10:53:57.949Z,38.30
2023-05-12T10:56:08.107Z,39.10
2023-05-12T10:58:13.560Z,40.40
2023-05-12T11:00:17.562Z,40.50
2023-05-12T11:02:26.296Z,39.80
2023-05-12T11:04:40.714Z,39.50
2023-05-12T11:06:45.440Z,39.30
2023-05-12T11:08:50.999Z,38.40
2023-05-12T11:10:55.970Z,38.30
2023-05-12T11:12:59.839Z,38.00
2023-05-12T11:15:04.487Z,38.50
2023-05-12T11:17:07.470Z,38.70
2023-05-12T11:19:10.638Z,39.20
2023-05-12T11:21:13.904Z,39.00
2023-05-12T11:23:28.353Z,38.80
2023-05-12T11:25:31.679Z,38.90
2023-05-12T11:27:41.254Z,38.50
2023-05-12T11:29:46.995Z,38.30
2023-05-12T11:31:52.974Z,37.70
2023-05-12T11:34:13.114Z,37.30
2023-05-12T11:36:21.651Z,37.00
2023-05-12T11:38:27.218Z,36.70
2023-05-12T11:40:30.502Z,36.60
2023-05-12T11:42:34.808Z,36.70
2023-05-12T11:44:38.432Z,36.60
2023-05-12T11:46:41.507Z,36.80
2023-05-12T11:48:44.365Z,36.80
2023-05-12T11:50:47.816Z,37.00
2023-05-12T11:52:54.616Z,37.10
2023-05-12T11:55:01.339Z,37.20
2023-05-12T11:57:04.563Z,37.30
2023-05-12T11:59:09.262Z,37.70
2023-05-12T12:01:12.726Z,37.70
2023-05-12T12:03:18.192Z,38.00
2023-05-12T12:05:24.143Z,37.80
2023-05-12T12:07:31.374Z,38.10
2023-05-12T12:09:36.351Z,38.10
2023-05-12T12:11:39.533Z,38.20
2023-05-12T12:13:49.841Z,38.60
2023-05-12T12:15:54.066Z,39.20
2023-05-12T12:17:59.624Z,39.30
2023-05-12T12:20:06.524Z,39.40
2023-05-12T12:22:09.464Z,39.40
2023-05-12T12:24:12.368Z,39.40
2023-05-12T12:26:16.443Z,38.80
2023-05-12T12:28:20.378Z,38.50
2023-05-12T12:30:23.270Z,39.10
2023-05-12T12:32:27.554Z,39.40
2023-05-12T12:34:30.636Z,39.50
2023-05-12T12:36:33.827Z,39.00
2023-05-12T12:38:36.838Z,38.40
2023-05-12T12:40:39.839Z,38.10
2023-05-12T12:42:42.720Z,36.90
2023-05-12T12:44:47.897Z,36.10
2023-05-12T12:46:51.028Z,35.40
2023-05-12T12:48:57.311Z,34.90
2023-05-12T12:51:02.110Z,34.60
2023-05-12T12:53:05.011Z,34.40
2023-05-12T12:55:10.137Z,34.30
2023-05-12T12:57:13.712Z,34.10
2023-05-12T12:59:16.632Z,34.10
2023-05-12T13:01:19.623Z,34.30
2023-05-12T13:03:22.985Z,34.40
2023-05-12T13:05:27.207Z,34.40
2023-05-12T13:07:30.232Z,34.50
2023-05-12T13:09:33.280Z,34.90
2023-05-12T13:11:36.293Z,35.00
2023-05-12T13:13:44.824Z,35.30
2023-05-12T13:15:48.117Z,34.90
2023-05-12T13:17:53.268Z,35.00
2023-05-12T13:19:56.255Z,35.00
2023-05-12T13:22:00.451Z,34.30
2023-05-12T13:24:03.358Z,33.90
2023-05-12T13:26:06.388Z,33.70
2023-05-12T13:28:11.425Z,33.60
2023-05-12T13:30:17.332Z,33.40
2023-05-12T13:32:21.759Z,33.40
2023-05-12T13:34:24.810Z,33.40
2023-05-12T13:36:32.403Z,33.00
2023-05-12T13:38:37.153Z,33.10
2023-05-12T13:40:40.136Z,33.40
2023-05-12T13:42:45.766Z,33.60
2023-05-12T13:44:49.468Z,33.60
2023-05-12T13:46:53.022Z,33.20
2023-05-12T13:48:55.959Z,32.70
2023-05-12T13:51:01.064Z,32.20
2023-05-12T13:53:03.934Z,32.00
2023-05-12T13:55:09.132Z,31.80
2023-05-12T13:57:11.991Z,31.20
2023-05-12T13:59:16.431Z,31.00
2023-05-12T14:01:19.533Z,30.60
2023-05-12T14:03:23.347Z,30.50
2023-05-12T14:05:27.241Z,30.50
2023-05-12T14:07:30.144Z,30.40
2023-05-12T14:09:33.006Z,30.50
2023-05-12T14:11:37.545Z,30.40
2023-05-12T14:13:40.504Z,30.60
2023-05-12T14:15:49.447Z,30.70
2023-05-12T14:17:53.233Z,30.60
2023-05-12T14:19:57.699Z,30.80
2023-05-12T14:22:03.160Z,30.80
2023-05-12T14:24:08.348Z,30.80
2023-05-12T14:26:11.212Z,31.00
2023-05-12T14:28:15.623Z,31.20
2023-05-12T14:30:18.865Z,31.50
2023-05-12T14:32:21.953Z,31.70
2023-05-12T14:34:24.827Z,32.00
2023-05-12T14:36:29.748Z,32.20
2023-05-12T14:38:32.644Z,32.50
2023-05-12T14:40:39.606Z,32.40
2023-05-12T14:42:43.236Z,32.60
2023-05-12T14:44:47.466Z,32.70
2023-05-12T14:46:50.413Z,32.50
2023-05-12T14:48:53.456Z,32.40
2023-05-12T14:51:02.055Z,32.50
2023-05-12T14:53:06.991Z,32.60
2023-05-12T14:55:13.632Z,32.70
2023-05-12T14:57:16.554Z,32.80
2023-05-12T14:59:19.692Z,32.70
2023-05-12T15:01:23.927Z,32.80
2023-05-12T15:03:33.541Z,33.00
2023-05-12T15:05:55.102Z,33.40
2023-05-12T15:08:01.973Z,33.60
2023-05-12T15:10:05.646Z,33.60
2023-05-12T15:12:10.624Z,33.30
2023-05-12T15:14:13.869Z,33.20
2023-05-12T15:16:16.820Z,33.50
2023-05-12T15:18:21.131Z,33.40
2023-05-12T15:20:26.127Z,33.40
2023-05-12T15:22:34.134Z,33.30
2023-05-12T15:24:37.073Z,33.20
2023-05-12T15:26:41.826Z,32.90
2023-05-12T15:28:44.710Z,32.90
2023-05-12T15:30:55.637Z,32.90
2023-05-12T15:32:59.815Z,32.80
2023-05-12T15:35:04.057Z,32.90
2023-05-12T15:37:09.301Z,32.80
2023-05-12T15:39:13.757Z,32.80
2023-05-12T15:41:16.698Z,32.50
2023-05-12T15:43:19.934Z,32.50
2023-05-12T15:45:23.013Z,31.80
2023-05-12T15:47:29.223Z,31.80
2023-05-12T15:49:33.440Z,31.10
2023-05-12T15:51:37.799Z,30.30
2023-05-12T15:53:40.696Z,30.20
2023-05-12T15:55:44.282Z,30.40
2023-05-12T15:57:47.180Z,30.50
2023-05-12T15:59:51.987Z,30.60
2023-05-12T16:01:55.785Z,30.40
2023-05-12T16:04:00.354Z,30.60
2023-05-12T16:06:03.381Z,30.20
2023-05-12T16:08:07.726Z,30.40
2023-05-12T16:10:11.676Z,30.40
2023-05-12T16:12:23.602Z,30.40
2023-05-12T16:14:29.325Z,30.30
2023-05-12T16:16:32.382Z,30.30
2023-05-12T16:18:36.765Z,30.30
2023-05-12T16:20:41.531Z,30.20
2023-05-12T16:22:46.634Z,30.20
2023-05-12T16:24:50.830Z,30.00
2023-05-12T16:26:53.684Z,30.60
2023-05-12T16:28:56.600Z,30.20
2023-05-12T16:30:59.530Z,30.40
2023-05-12T16:33:02.665Z,30.50
2023-05-12T16:35:10.918Z,30.70
2023-05-12T16:37:16.422Z,30.70
2023-05-12T16:39:20.742Z,30.60
2023-05-12T16:41:26.126Z,30.50
2023-05-12T16:43:30.922Z,30.30
2023-05-12T16:45:37.050Z,30.20
2023-05-12T16:47:40.018Z,29.90
2023-05-12T16:49:46.899Z,29.90
2023-05-12T16:51:50.131Z,29.90
2023-05-12T16:53:52.973Z,29.80
2023-05-12T16:55:56.029Z,29.60
2023-05-12T16:58:02.664Z,29.50
2023-05-12T17:00:06.799Z,29.50
2023-05-12T17:02:11.012Z,29.60
2023-05-12T17:04:16.508Z,29.70
2023-05-12T17:06:19.380Z,29.80
2023-05-12T17:08:22.949Z,29.80
2023-05-12T17:10:26.184Z,29.60
2023-05-12T17:12:29.443Z,29.50
2023-05-12T17:14:38.921Z,29.40
2023-05-12T17:16:41.889Z,29.50
2023-05-12T17:20:50.671Z,29.20
2023-05-12T17:22:56.589Z,29.30
2023-05-12T17:24:59.491Z,29.10
2023-05-12T17:27:02.523Z,28.90
2023-05-12T17:29:08.095Z,29.10
2023-05-12T17:31:12.455Z,29.20
2023-05-12T17:33:15.856Z,29.10
2023-05-12T17:35:22.379Z,29.20
2023-05-12T17:37:25.639Z,29.10
2023-05-12T17:39:28.611Z,29.10
2023-05-12T17:41:31.540Z,29.20
2023-05-12T17:43:34.494Z,29.20
2023-05-12T17:45:42.493Z,29.20
2023-05-12T17:47:47.774Z,29.10
2023-05-12T17:49:53.998Z,29.10
2023-05-12T17:51:59.310Z,29.10
2023-05-12T17:54:03.766Z,29.10
2023-05-12T17:56:07.171Z,29.30
2023-05-12T17:58:11.905Z,29.10
2023-05-12T18:00:17.771Z,29.00
2023-05-12T18:02:21.026Z,28.90
2023-05-12T18:04:26.880Z,28.80
2023-05-12T18:06:32.525Z,28.70
2023-05-12T18:08:35.511Z,28.60
2023-05-12T18:10:41.331Z,28.40
2023-05-12T18:12:46.160Z,28.10
2023-05-12T18:14:49.388Z,28.00
2023-05-12T18:16:52.542Z,28.00
2023-05-12T18:18:58.365Z,28.10
2023-05-12T18:21:06.777Z,28.00
2023-05-12T18:23:09.699Z,28.10
2023-05-12T18:25:13.988Z,28.10
2023-05-12T18:27:17.386Z,28.00
2023-05-12T18:29:20.216Z,27.90
2023-05-12T18:31:23.252Z,27.70
2023-05-12T18:33:29.943Z,27.80
2023-05-12T18:35:32.943Z,27.60
2023-05-12T18:37:39.660Z,27.70
2023-05-12T18:39:43.215Z,27.50
2023-05-12T18:41:46.269Z,27.60
2023-05-12T18:43:50.181Z,27.70
2023-05-12T18:45:54.062Z,27.60
2023-05-12T18:48:01.395Z,27.80
2023-05-12T18:50:05.336Z,27.80
2023-05-12T18:52:10.380Z,27.80
2023-05-12T18:54:14.681Z,28.00
2023-05-12T18:56:19.956Z,28.00
2023-05-12T18:58:23.004Z,28.10
2023-05-12T19:00:31.993Z,28.20
2023-05-12T19:02:35.567Z,28.40
2023-05-12T19:04:39.632Z,28.30
2023-05-12T19:06:46.527Z,28.40
2023-05-12T19:08:49.459Z,28.40
2023-05-12T19:10:53.818Z,28.50
2023-05-12T19:12:59.965Z,28.50
2023-05-12T19:15:02.870Z,28.70
2023-05-12T19:17:07.186Z,28.90
2023-05-12T19:19:10.305Z,28.90
2023-05-12T19:21:13.757Z,28.90
2023-05-12T19:23:17.117Z,29.00
2023-05-12T19:25:20.774Z,29.10
2023-05-12T19:27:30.510Z,29.10
2023-05-12T19:29:33.765Z,29.30
2023-05-12T19:31:36.822Z,29.30
2023-05-12T19:33:39.742Z,29.50
2023-05-12T19:35:42.988Z,29.50
2023-05-12T19:37:46.988Z,29.60
2023-05-12T19:39:53.101Z,29.70
2023-05-12T19:41:56.040Z,29.60
2023-05-12T19:44:02.685Z,29.60
2023-05-12T19:46:06.615Z,29.60
2023-05-12T19:48:10.208Z,29.60
2023-05-12T19:50:14.607Z,29.70
2023-05-12T19:52:17.515Z,29.70
2023-05-12T19:54:20.802Z,29.70
2023-05-12T19:56:24.185Z,29.90
2023-05-12T19:58:27.706Z,30.00
2023-05-12T20:00:32.052Z,30.20
2023-05-12T20:02:35.063Z,30.40
2023-05-12T20:04:37.976Z,30.40
2023-05-12T20:06:42.200Z,30.40
2023-05-12T20:08:45.585Z,30.90
2023-05-12T20:10:48.456Z,30.90
2023-05-12T20:12:51.612Z,30.90
2023-05-12T20:14:57.305Z,31.20
2023-05-12T20:17:05.404Z,31.40
2023-05-12T20:19:08.459Z,31.70
2023-05-12T20:21:11.403Z,31.70
2023-05-12T20:23:14.616Z,31.80
2023-05-12T20:25:20.917Z,32.00
2023-05-12T20:27:24.457Z,32.20
2023-05-12T20:29:30.079Z,32.40
2023-05-12T20:31:34.411Z,32.40
2023-05-12T20:33:38.732Z,32.50
2023-05-12T20:35:41.599Z,33.00
2023-05-12T20:37:44.764Z,32.90
2023-05-12T20:39:47.591Z,32.90
2023-05-12T20:41:50.559Z,32.80
2023-05-12T20:43:53.621Z,33.20
2023-05-12T20:45:56.805Z,33.30
2023-05-12T20:47:59.741Z,33.70
2023-05-12T20:50:05.540Z,33.80
2023-05-12T20:52:08.790Z,34.10
2023-05-12T20:54:11.627Z,34.20
2023-05-12T20:56:16.811Z,34.00
2023-05-12T20:58:19.805Z,34.20
2023-05-12T21:00:22.746Z,34.10
2023-05-12T21:02:26.885Z,34.20
2023-05-12T21:04:29.901Z,34.50
2023-05-12T21:06:36.953Z,34.60
2023-05-12T21:08:42.075Z,34.70
2023-05-12T21:10:45.352Z,34.50
2023-05-12T21:12:48.295Z,34.50
2023-05-12T21:14:51.168Z,34.80
2023-05-12T21:16:54.131Z,34.90
2023-05-12T21:18:57.136Z,35.10
2023-05-12T21:21:01.967Z,35.00
2023-05-12T21:23:09.251Z,35.30
2023-05-12T21:25:12.196Z,36.20
2023-05-12T21:27:18.142Z,35.70
2023-05-12T21:29:21.544Z,35.70
2023-05-12T21:31:24.769Z,36.10
2023-05-12T21:33:28.705Z,36.80
2023-05-12T21:35:31.816Z,36.30
2023-05-12T21:37:34.737Z,36.20
2023-05-12T21:39:38.967Z,37.00
2023-05-12T21:41:42.106Z,36.60
2023-05-12T21:43:45.603Z,36.60
2023-05-12T21:45:48.681Z,36.90
2023-05-12T21:47:51.715Z,36.90
2023-05-12T21:49:56.866Z,37.10
2023-05-12T21:52:01.251Z,37.20
2023-05-12T21:54:13.392Z,37.30
2023-05-12T21:56:19.719Z,37.60
2023-05-12T21:58:23.779Z,37.60
2023-05-12T22:00:26.942Z,37.60
2023-05-12T22:02:34.600Z,37.70
2023-05-12T22:04:37.729Z,38.00
2023-05-12T22:06:40.651Z,37.90
2023-05-12T22:08:45.506Z,38.00
2023-05-12T22:10:48.555Z,38.20
2023-05-12T22:12:54.075Z,38.40
2023-05-12T22:14:56.958Z,38.50
2023-05-12T22:17:03.080Z,38.60
2023-05-12T22:19:14.104Z,38.60
2023-05-12T22:21:18.356Z,38.70
2023-05-12T22:23:23.595Z,38.70
2023-05-12T22:25:26.763Z,38.70
2023-05-12T22:27:29.588Z,38.80
2023-05-12T22:29:36.058Z,38.90
2023-05-12T22:31:39.205Z,39.00
2023-05-12T22:33:42.779Z,39.10
2023-05-12T22:35:47.387Z,39.10
2023-05-12T22:37:51.040Z,39.20
2023-05-12T22:39:54.917Z,39.40
2023-05-12T22:41:57.830Z,39.20
2023-05-12T22:44:00.961Z,39.40
2023-05-12T22:46:09.423Z,39.40
2023-05-12T22:48:12.632Z,39.60
2023-05-12T22:50:16.172Z,39.60
2023-05-12T22:52:20.733Z,39.70
2023-05-12T22:54:23.697Z,40.00
2023-05-12T22:56:26.812Z,40.00
2023-05-12T22:58:29.979Z,40.00
2023-05-12T23:00:35.497Z,40.00
2023-05-12T23:02:38.576Z,39.90
2023-05-12T23:04:41.744Z,40.00
2023-05-12T23:06:44.788Z,39.90
2023-05-12T23:08:49.285Z,40.00
2023-05-12T23:10:52.331Z,40.00
2023-05-12T23:12:55.580Z,40.00
2023-05-12T23:14:58.568Z,39.90
2023-05-12T23:17:02.137Z,39.80
2023-05-12T23:19:05.459Z,39.80
2023-05-12T23:21:14.149Z,39.80
2023-05-12T23:23:17.151Z,39.90
2023-05-12T23:25:22.015Z,39.70
2023-05-12T23:27:25.397Z,39.80
2023-05-12T23:29:28.664Z,39.60
2023-05-12T23:31:31.627Z,39.60
2023-05-12T23:33:34.751Z,39.50
2023-05-12T23:35:37.982Z,39.60
2023-05-12T23:37:40.921Z,39.60
2023-05-12T23:39:43.815Z,39.70
2023-05-12T23:41:49.420Z,39.60
2023-05-12T23:43:52.513Z,39.60
2023-05-12T23:45:55.977Z,39.30
2023-05-12T23:48:00.415Z,39.40
2023-05-12T23:50:03.725Z,39.30
2023-05-12T23:52:07.628Z,39.20
2023-05-12T23:54:10.774Z,39.40
2023-05-12T23:56:13.957Z,39.30
2023-05-12T23:58:18.339Z,39.40
